sensor_id;sensor_type;location;lat;lon;timestamp;P1;durP1;ratioP1;P2;durP2;ratioP2
67585;SDS011;55785;47.946;20.540;2022-09-27T00:02:19;0.63;;;0.63;;
67585;SDS011;55785;47.946;20.540;2022-09-27T00:04:45;0.88;;;0.80;;
67585;SDS011;55785;47.946;20.540;2022-09-27T00:07:10;1.00;;;0.90;;
67585;SDS011;55785;47.946;20.540;2022-09-27T00:09:35;1.17;;;0.73;;
67585;SDS011;55785;47.946;20.540;2022-09-27T00:12:01;0.68;;;0.68;;
67585;SDS011;55785;47.946;20.540;2022-09-27T00:14:26;1.92;;;1.52;;
67585;SDS011;55785;47.946;20.540;2022-09-27T00:16:52;0.80;;;0.80;;
67585;SDS011;55785;47.946;20.540;2022-09-27T00:19:18;0.55;;;0.55;;
67585;SDS011;55785;47.946;20.540;2022-09-27T00:21:45;0.38;;;0.38;;
67585;SDS011;55785;47.946;20.540;2022-09-27T00:24:15;1.13;;;0.93;;
67585;SDS011;55785;47.946;20.540;2022-09-27T00:26:42;1.05;;;0.75;;
67585;SDS011;55785;47.946;20.540;2022-09-27T00:29:08;0.55;;;0.55;;
67585;SDS011;55785;47.946;20.540;2022-09-27T00:31:34;0.93;;;0.70;;
67585;SDS011;55785;47.946;20.540;2022-09-27T00:34:01;0.80;;;0.80;;
67585;SDS011;55785;47.946;20.540;2022-09-27T00:36:28;0.40;;;0.40;;
67585;SDS011;55785;47.946;20.540;2022-09-27T00:38:54;0.75;;;0.68;;
67585;SDS011;55785;47.946;20.540;2022-09-27T00:41:24;0.52;;;0.52;;
67585;SDS011;55785;47.946;20.540;2022-09-27T00:49:17;0.68;;;0.68;;
67585;SDS011;55785;47.946;20.540;2022-09-27T00:54:28;0.17;;;0.17;;
67585;SDS011;55785;47.946;20.540;2022-09-27T00:56:55;0.63;;;0.60;;
67585;SDS011;55785;47.946;20.540;2022-09-27T00:59:23;2.90;;;1.38;;
67585;SDS011;55785;47.946;20.540;2022-09-27T01:01:53;0.68;;;0.50;;
67585;SDS011;55785;47.946;20.540;2022-09-27T01:04:20;2.17;;;0.98;;
67585;SDS011;55785;47.946;20.540;2022-09-27T01:06:48;0.65;;;0.60;;
67585;SDS011;55785;47.946;20.540;2022-09-27T01:09:14;0.17;;;0.17;;
67585;SDS011;55785;47.946;20.540;2022-09-27T01:14:16;0.20;;;0.20;;
67585;SDS011;55785;47.946;20.540;2022-09-27T01:37:01;1.33;;;1.23;;
67585;SDS011;55785;47.946;20.540;2022-09-27T01:42:21;0.20;;;0.20;;
67585;SDS011;55785;47.946;20.540;2022-09-27T01:44:53;0.10;;;0.10;;
67585;SDS011;55785;47.946;20.540;2022-09-27T01:47:20;0.17;;;0.17;;
67585;SDS011;55785;47.946;20.540;2022-09-27T01:52:24;0.20;;;0.20;;
67585;SDS011;55785;47.946;20.540;2022-09-27T01:54:57;0.13;;;0.13;;
67585;SDS011;55785;47.946;20.540;2022-09-27T01:57:26;0.10;;;0.10;;
67585;SDS011;55785;47.946;20.540;2022-09-27T01:59:57;0.30;;;0.30;;
67585;SDS011;55785;47.946;20.540;2022-09-27T02:02:26;0.25;;;0.25;;
67585;SDS011;55785;47.946;20.540;2022-09-27T02:04:55;0.30;;;0.30;;
67585;SDS011;55785;47.946;20.540;2022-09-27T02:07:28;0.20;;;0.20;;
67585;SDS011;55785;47.946;20.540;2022-09-27T02:10:00;0.45;;;0.45;;
67585;SDS011;55785;47.946;20.540;2022-09-27T02:12:30;0.10;;;0.10;;
67585;SDS011;55785;47.946;20.540;2022-09-27T02:15:20;0.77;;;0.60;;
67585;SDS011;55785;47.946;20.540;2022-09-27T02:20:28;0.20;;;0.20;;
67585;SDS011;55785;47.946;20.540;2022-09-27T02:23:13;1.20;;;0.65;;
67585;SDS011;55785;47.946;20.540;2022-09-27T02:25:58;0.32;;;0.32;;
67585;SDS011;55785;47.946;20.540;2022-09-27T02:31:05;0.10;;;0.10;;
67585;SDS011;55785;47.946;20.540;2022-09-27T02:33:50;0.63;;;0.52;;
67585;SDS011;55785;47.946;20.540;2022-09-27T02:36:20;2.00;;;0.40;;
67585;SDS011;55785;47.946;20.540;2022-09-27T02:38:46;0.32;;;0.30;;
67585;SDS011;55785;47.946;20.540;2022-09-27T02:41:21;0.20;;;0.20;;
67585;SDS011;55785;47.946;20.540;2022-09-27T02:44:06;0.30;;;0.30;;
67585;SDS011;55785;47.946;20.540;2022-09-27T02:49:30;0.10;;;0.10;;
67585;SDS011;55785;47.946;20.540;2022-09-27T02:55:14;0.55;;;0.30;;
67585;SDS011;55785;47.946;20.540;2022-09-27T03:00:23;0.00;;;0.00;;
67585;SDS011;55785;47.946;20.540;2022-09-27T03:02:58;0.25;;;0.20;;
67585;SDS011;55785;47.946;20.540;2022-09-27T03:05:39;0.10;;;0.10;;
67585;SDS011;55785;47.946;20.540;2022-09-27T03:08:09;0.10;;;0.10;;
67585;SDS011;55785;47.946;20.540;2022-09-27T03:10:36;0.10;;;0.10;;
67585;SDS011;55785;47.946;20.540;2022-09-27T03:13:01;0.20;;;0.20;;
67585;SDS011;55785;47.946;20.540;2022-09-27T03:15:26;0.30;;;0.30;;
67585;SDS011;55785;47.946;20.540;2022-09-27T03:17:52;0.17;;;0.17;;
67585;SDS011;55785;47.946;20.540;2022-09-27T03:20:17;0.20;;;0.20;;
67585;SDS011;55785;47.946;20.540;2022-09-27T03:22:42;0.13;;;0.13;;
67585;SDS011;55785;47.946;20.540;2022-09-27T03:25:08;0.05;;;0.05;;
67585;SDS011;55785;47.946;20.540;2022-09-27T03:27:33;0.05;;;0.05;;
67585;SDS011;55785;47.946;20.540;2022-09-27T03:29:59;0.00;;;0.00;;
67585;SDS011;55785;47.946;20.540;2022-09-27T03:32:24;0.40;;;0.40;;
67585;SDS011;55785;47.946;20.540;2022-09-27T03:34:50;0.00;;;0.00;;
67585;SDS011;55785;47.946;20.540;2022-09-27T03:37:16;0.17;;;0.13;;
67585;SDS011;55785;47.946;20.540;2022-09-27T03:39:41;0.43;;;0.32;;
67585;SDS011;55785;47.946;20.540;2022-09-27T03:42:07;0.32;;;0.28;;
67585;SDS011;55785;47.946;20.540;2022-09-27T03:44:32;0.17;;;0.10;;
67585;SDS011;55785;47.946;20.540;2022-09-27T03:46:57;0.28;;;0.28;;
67585;SDS011;55785;47.946;20.540;2022-09-27T03:49:23;0.15;;;0.15;;
67585;SDS011;55785;47.946;20.540;2022-09-27T03:51:49;0.10;;;0.10;;
67585;SDS011;55785;47.946;20.540;2022-09-27T03:54:14;1.17;;;0.57;;
67585;SDS011;55785;47.946;20.540;2022-09-27T03:56:39;0.43;;;0.35;;
67585;SDS011;55785;47.946;20.540;2022-09-27T03:59:05;0.20;;;0.20;;
67585;SDS011;55785;47.946;20.540;2022-09-27T04:01:30;0.80;;;0.22;;
67585;SDS011;55785;47.946;20.540;2022-09-27T04:03:55;0.20;;;0.20;;
67585;SDS011;55785;47.946;20.540;2022-09-27T04:06:21;0.20;;;0.20;;
67585;SDS011;55785;47.946;20.540;2022-09-27T04:08:46;0.40;;;0.28;;
67585;SDS011;55785;47.946;20.540;2022-09-27T04:11:11;0.00;;;0.00;;
67585;SDS011;55785;47.946;20.540;2022-09-27T04:13:37;0.00;;;0.00;;
67585;SDS011;55785;47.946;20.540;2022-09-27T04:16:02;0.00;;;0.00;;
67585;SDS011;55785;47.946;20.540;2022-09-27T04:18:28;0.10;;;0.10;;
67585;SDS011;55785;47.946;20.540;2022-09-27T04:20:53;0.10;;;0.10;;
67585;SDS011;55785;47.946;20.540;2022-09-27T04:23:18;0.10;;;0.10;;
67585;SDS011;55785;47.946;20.540;2022-09-27T04:25:44;0.22;;;0.17;;
67585;SDS011;55785;47.946;20.540;2022-09-27T04:28:09;0.22;;;0.22;;
67585;SDS011;55785;47.946;20.540;2022-09-27T04:30:35;0.03;;;0.03;;
67585;SDS011;55785;47.946;20.540;2022-09-27T04:33:00;0.00;;;0.00;;
67585;SDS011;55785;47.946;20.540;2022-09-27T04:35:25;0.15;;;0.15;;
67585;SDS011;55785;47.946;20.540;2022-09-27T04:37:51;0.05;;;0.05;;
67585;SDS011;55785;47.946;20.540;2022-09-27T04:40:16;0.10;;;0.10;;
67585;SDS011;55785;47.946;20.540;2022-09-27T04:42:41;0.13;;;0.13;;
67585;SDS011;55785;47.946;20.540;2022-09-27T04:45:07;0.13;;;0.13;;
67585;SDS011;55785;47.946;20.540;2022-09-27T04:47:32;0.20;;;0.20;;
67585;SDS011;55785;47.946;20.540;2022-09-27T04:49:57;0.20;;;0.20;;
67585;SDS011;55785;47.946;20.540;2022-09-27T04:52:23;0.10;;;0.10;;
67585;SDS011;55785;47.946;20.540;2022-09-27T04:54:48;0.00;;;0.00;;
67585;SDS011;55785;47.946;20.540;2022-09-27T04:57:13;0.20;;;0.20;;
67585;SDS011;55785;47.946;20.540;2022-09-27T04:59:39;0.00;;;0.00;;
67585;SDS011;55785;47.946;20.540;2022-09-27T05:02:04;0.10;;;0.10;;
67585;SDS011;55785;47.946;20.540;2022-09-27T05:04:30;0.88;;;0.57;;
67585;SDS011;55785;47.946;20.540;2022-09-27T05:06:55;0.30;;;0.30;;
67585;SDS011;55785;47.946;20.540;2022-09-27T05:09:20;0.17;;;0.15;;
67585;SDS011;55785;47.946;20.540;2022-09-27T05:11:45;0.03;;;0.03;;
67585;SDS011;55785;47.946;20.540;2022-09-27T05:14:11;0.20;;;0.20;;
67585;SDS011;55785;47.946;20.540;2022-09-27T05:16:36;0.50;;;0.43;;
67585;SDS011;55785;47.946;20.540;2022-09-27T05:19:02;0.20;;;0.20;;
67585;SDS011;55785;47.946;20.540;2022-09-27T05:21:27;0.10;;;0.10;;
67585;SDS011;55785;47.946;20.540;2022-09-27T05:23:53;0.25;;;0.25;;
67585;SDS011;55785;47.946;20.540;2022-09-27T05:26:18;0.30;;;0.30;;
67585;SDS011;55785;47.946;20.540;2022-09-27T05:28:44;0.30;;;0.30;;
67585;SDS011;55785;47.946;20.540;2022-09-27T05:31:09;0.10;;;0.10;;
67585;SDS011;55785;47.946;20.540;2022-09-27T05:33:34;0.10;;;0.10;;
67585;SDS011;55785;47.946;20.540;2022-09-27T05:35:59;0.70;;;0.20;;
67585;SDS011;55785;47.946;20.540;2022-09-27T05:38:25;0.03;;;0.03;;
67585;SDS011;55785;47.946;20.540;2022-09-27T05:40:50;0.20;;;0.10;;
67585;SDS011;55785;47.946;20.540;2022-09-27T05:43:16;0.15;;;0.15;;
67585;SDS011;55785;47.946;20.540;2022-09-27T05:45:42;0.20;;;0.20;;
67585;SDS011;55785;47.946;20.540;2022-09-27T05:48:08;0.03;;;0.03;;
67585;SDS011;55785;47.946;20.540;2022-09-27T05:50:34;0.00;;;0.00;;
67585;SDS011;55785;47.946;20.540;2022-09-27T05:52:59;0.10;;;0.10;;
67585;SDS011;55785;47.946;20.540;2022-09-27T05:55:25;0.08;;;0.08;;
67585;SDS011;55785;47.946;20.540;2022-09-27T05:57:57;0.03;;;0.03;;
67585;SDS011;55785;47.946;20.540;2022-09-27T06:00:28;0.05;;;0.05;;
67585;SDS011;55785;47.946;20.540;2022-09-27T06:02:55;0.43;;;0.43;;
67585;SDS011;55785;47.946;20.540;2022-09-27T06:05:22;0.55;;;0.50;;
67585;SDS011;55785;47.946;20.540;2022-09-27T06:07:48;0.20;;;0.20;;
67585;SDS011;55785;47.946;20.540;2022-09-27T06:10:14;0.17;;;0.17;;
67585;SDS011;55785;47.946;20.540;2022-09-27T06:12:40;0.17;;;0.17;;
67585;SDS011;55785;47.946;20.540;2022-09-27T06:15:06;0.20;;;0.20;;
67585;SDS011;55785;47.946;20.540;2022-09-27T06:17:32;0.03;;;0.03;;
67585;SDS011;55785;47.946;20.540;2022-09-27T06:19:58;0.08;;;0.08;;
67585;SDS011;55785;47.946;20.540;2022-09-27T06:22:24;1.88;;;0.73;;
67585;SDS011;55785;47.946;20.540;2022-09-27T06:24:49;2.58;;;2.38;;
67585;SDS011;55785;47.946;20.540;2022-09-27T06:27:14;3.05;;;2.20;;
67585;SDS011;55785;47.946;20.540;2022-09-27T06:29:39;0.50;;;0.50;;
67585;SDS011;55785;47.946;20.540;2022-09-27T06:32:05;0.20;;;0.20;;
67585;SDS011;55785;47.946;20.540;2022-09-27T06:34:30;0.30;;;0.30;;
67585;SDS011;55785;47.946;20.540;2022-09-27T06:36:55;0.30;;;0.28;;
67585;SDS011;55785;47.946;20.540;2022-09-27T06:39:21;0.32;;;0.32;;
67585;SDS011;55785;47.946;20.540;2022-09-27T06:41:46;0.47;;;0.47;;
67585;SDS011;55785;47.946;20.540;2022-09-27T06:44:11;0.73;;;0.50;;
67585;SDS011;55785;47.946;20.540;2022-09-27T06:46:36;0.10;;;0.10;;
67585;SDS011;55785;47.946;20.540;2022-09-27T06:49:02;0.63;;;0.63;;
67585;SDS011;55785;47.946;20.540;2022-09-27T06:51:27;0.30;;;0.30;;
67585;SDS011;55785;47.946;20.540;2022-09-27T06:53:52;0.10;;;0.10;;
67585;SDS011;55785;47.946;20.540;2022-09-27T06:56:18;0.40;;;0.40;;
67585;SDS011;55785;47.946;20.540;2022-09-27T06:58:43;0.30;;;0.30;;
67585;SDS011;55785;47.946;20.540;2022-09-27T07:01:08;0.65;;;0.60;;
67585;SDS011;55785;47.946;20.540;2022-09-27T07:03:34;0.60;;;0.50;;
67585;SDS011;55785;47.946;20.540;2022-09-27T07:06:00;0.10;;;0.10;;
67585;SDS011;55785;47.946;20.540;2022-09-27T07:08:27;0.35;;;0.32;;
67585;SDS011;55785;47.946;20.540;2022-09-27T07:11:04;0.80;;;0.35;;
67585;SDS011;55785;47.946;20.540;2022-09-27T07:13:31;0.32;;;0.32;;
67585;SDS011;55785;47.946;20.540;2022-09-27T07:15:56;1.08;;;0.60;;
67585;SDS011;55785;47.946;20.540;2022-09-27T07:18:21;1.02;;;0.93;;
67585;SDS011;55785;47.946;20.540;2022-09-27T07:20:47;0.70;;;0.70;;
67585;SDS011;55785;47.946;20.540;2022-09-27T07:23:13;0.65;;;0.55;;
67585;SDS011;55785;47.946;20.540;2022-09-27T07:25:38;0.20;;;0.20;;
67585;SDS011;55785;47.946;20.540;2022-09-27T07:28:05;1.05;;;0.93;;
67585;SDS011;55785;47.946;20.540;2022-09-27T07:30:32;0.57;;;0.57;;
67585;SDS011;55785;47.946;20.540;2022-09-27T07:32:59;0.57;;;0.57;;
67585;SDS011;55785;47.946;20.540;2022-09-27T07:35:25;0.45;;;0.45;;
67585;SDS011;55785;47.946;20.540;2022-09-27T07:37:51;0.50;;;0.32;;
67585;SDS011;55785;47.946;20.540;2022-09-27T07:40:17;1.27;;;1.05;;
67585;SDS011;55785;47.946;20.540;2022-09-27T07:42:42;0.73;;;0.68;;
67585;SDS011;55785;47.946;20.540;2022-09-27T07:45:08;0.90;;;0.77;;
67585;SDS011;55785;47.946;20.540;2022-09-27T07:47:33;0.52;;;0.52;;
67585;SDS011;55785;47.946;20.540;2022-09-27T07:49:59;0.50;;;0.50;;
67585;SDS011;55785;47.946;20.540;2022-09-27T07:52:24;0.90;;;0.90;;
67585;SDS011;55785;47.946;20.540;2022-09-27T07:54:50;0.65;;;0.65;;
67585;SDS011;55785;47.946;20.540;2022-09-27T07:57:15;1.48;;;1.05;;
67585;SDS011;55785;47.946;20.540;2022-09-27T07:59:41;0.50;;;0.50;;
67585;SDS011;55785;47.946;20.540;2022-09-27T08:02:13;0.93;;;0.80;;
67585;SDS011;55785;47.946;20.540;2022-09-27T08:04:41;0.50;;;0.50;;
67585;SDS011;55785;47.946;20.540;2022-09-27T08:07:07;1.13;;;0.90;;
67585;SDS011;55785;47.946;20.540;2022-09-27T08:09:32;1.13;;;1.02;;
67585;SDS011;55785;47.946;20.540;2022-09-27T08:11:57;1.63;;;1.27;;
67585;SDS011;55785;47.946;20.540;2022-09-27T08:14:23;1.17;;;1.08;;
67585;SDS011;55785;47.946;20.540;2022-09-27T08:16:48;1.13;;;1.02;;
67585;SDS011;55785;47.946;20.540;2022-09-27T08:19:13;1.15;;;1.05;;
67585;SDS011;55785;47.946;20.540;2022-09-27T08:21:39;1.02;;;0.90;;
67585;SDS011;55785;47.946;20.540;2022-09-27T08:24:04;1.08;;;0.80;;
67585;SDS011;55785;47.946;20.540;2022-09-27T08:26:29;2.38;;;1.60;;
67585;SDS011;55785;47.946;20.540;2022-09-27T08:28:55;0.95;;;0.93;;
67585;SDS011;55785;47.946;20.540;2022-09-27T08:31:20;0.98;;;0.90;;
67585;SDS011;55785;47.946;20.540;2022-09-27T08:33:49;0.80;;;0.80;;
67585;SDS011;55785;47.946;20.540;2022-09-27T08:36:14;1.15;;;0.95;;
67585;SDS011;55785;47.946;20.540;2022-09-27T08:38:40;1.30;;;1.17;;
67585;SDS011;55785;47.946;20.540;2022-09-27T08:41:06;1.23;;;1.02;;
67585;SDS011;55785;47.946;20.540;2022-09-27T08:43:49;0.70;;;0.70;;
67585;SDS011;55785;47.946;20.540;2022-09-27T08:54:54;1.45;;;0.98;;
67585;SDS011;55785;47.946;20.540;2022-09-27T08:57:21;0.80;;;0.80;;
67585;SDS011;55785;47.946;20.540;2022-09-27T09:02:30;0.90;;;0.80;;
67585;SDS011;55785;47.946;20.540;2022-09-27T09:04:57;1.65;;;0.90;;
67585;SDS011;55785;47.946;20.540;2022-09-27T09:07:45;2.22;;;1.63;;
67585;SDS011;55785;47.946;20.540;2022-09-27T09:12:51;1.23;;;1.00;;
67585;SDS011;55785;47.946;20.540;2022-09-27T09:26:42;1.00;;;1.00;;
67585;SDS011;55785;47.946;20.540;2022-09-27T09:32:01;2.00;;;1.55;;
67585;SDS011;55785;47.946;20.540;2022-09-27T09:37:21;2.08;;;1.45;;
67585;SDS011;55785;47.946;20.540;2022-09-27T09:42:54;2.15;;;1.20;;
67585;SDS011;55785;47.946;20.540;2022-09-27T09:50:27;1.65;;;1.40;;
67585;SDS011;55785;47.946;20.540;2022-09-27T09:53:28;2.15;;;1.83;;
67585;SDS011;55785;47.946;20.540;2022-09-27T09:56:06;1.10;;;1.10;;
67585;SDS011;55785;47.946;20.540;2022-09-27T09:58:43;1.65;;;1.45;;
67585;SDS011;55785;47.946;20.540;2022-09-27T10:01:36;1.52;;;1.42;;
67585;SDS011;55785;47.946;20.540;2022-09-27T10:03:59;4.03;;;1.30;;
67585;SDS011;55785;47.946;20.540;2022-09-27T10:06:24;1.35;;;1.25;;
67585;SDS011;55785;47.946;20.540;2022-09-27T10:08:51;1.77;;;1.58;;
67585;SDS011;55785;47.946;20.540;2022-09-27T10:11:29;2.42;;;1.52;;
67585;SDS011;55785;47.946;20.540;2022-09-27T10:14:01;1.48;;;1.27;;
67585;SDS011;55785;47.946;20.540;2022-09-27T10:16:26;2.92;;;1.95;;
67585;SDS011;55785;47.946;20.540;2022-09-27T10:18:54;2.58;;;1.52;;
67585;SDS011;55785;47.946;20.540;2022-09-27T10:21:24;1.40;;;1.30;;
67585;SDS011;55785;47.946;20.540;2022-09-27T10:26:45;1.25;;;1.15;;
67585;SDS011;55785;47.946;20.540;2022-09-27T10:31:44;2.38;;;2.10;;
67585;SDS011;55785;47.946;20.540;2022-09-27T10:37:05;2.42;;;1.80;;
67585;SDS011;55785;47.946;20.540;2022-09-27T10:39:36;1.38;;;1.13;;
67585;SDS011;55785;47.946;20.540;2022-09-27T10:47:41;1.52;;;1.27;;
67585;SDS011;55785;47.946;20.540;2022-09-27T10:50:10;1.98;;;1.13;;
67585;SDS011;55785;47.946;20.540;2022-09-27T10:52:42;2.58;;;1.48;;
67585;SDS011;55785;47.946;20.540;2022-09-27T10:55:15;1.77;;;1.63;;
67585;SDS011;55785;47.946;20.540;2022-09-27T10:57:51;2.67;;;1.92;;
67585;SDS011;55785;47.946;20.540;2022-09-27T11:00:27;2.30;;;1.92;;
67585;SDS011;55785;47.946;20.540;2022-09-27T11:02:56;1.70;;;1.50;;
67585;SDS011;55785;47.946;20.540;2022-09-27T11:05:37;4.97;;;2.25;;
67585;SDS011;55785;47.946;20.540;2022-09-27T11:08:19;2.97;;;1.30;;
67585;SDS011;55785;47.946;20.540;2022-09-27T11:10:59;3.22;;;1.85;;
67585;SDS011;55785;47.946;20.540;2022-09-27T11:13:26;1.92;;;1.80;;
67585;SDS011;55785;47.946;20.540;2022-09-27T11:16:07;3.35;;;1.55;;
67585;SDS011;55785;47.946;20.540;2022-09-27T11:18:56;2.22;;;1.58;;
67585;SDS011;55785;47.946;20.540;2022-09-27T11:21:52;4.13;;;1.80;;
67585;SDS011;55785;47.946;20.540;2022-09-27T11:27:22;2.80;;;2.13;;
67585;SDS011;55785;47.946;20.540;2022-09-27T11:30:15;3.67;;;1.48;;
67585;SDS011;55785;47.946;20.540;2022-09-27T11:35:27;2.13;;;1.50;;
67585;SDS011;55785;47.946;20.540;2022-09-27T11:46:29;2.70;;;1.67;;
67585;SDS011;55785;47.946;20.540;2022-09-27T11:49:16;1.38;;;1.27;;
67585;SDS011;55785;47.946;20.540;2022-09-27T11:57:45;1.60;;;1.13;;
67585;SDS011;55785;47.946;20.540;2022-09-27T12:05:44;1.45;;;1.23;;
67585;SDS011;55785;47.946;20.540;2022-09-27T12:08:25;0.82;;;0.82;;
67585;SDS011;55785;47.946;20.540;2022-09-27T12:11:00;2.22;;;1.42;;
67585;SDS011;55785;47.946;20.540;2022-09-27T12:13:40;1.55;;;0.90;;
67585;SDS011;55785;47.946;20.540;2022-09-27T12:16:18;1.10;;;0.98;;
67585;SDS011;55785;47.946;20.540;2022-09-27T12:18:45;1.40;;;1.13;;
67585;SDS011;55785;47.946;20.540;2022-09-27T12:21:12;0.43;;;0.43;;
67585;SDS011;55785;47.946;20.540;2022-09-27T12:23:40;0.70;;;0.70;;
67585;SDS011;55785;47.946;20.540;2022-09-27T12:26:11;2.25;;;1.17;;
67585;SDS011;55785;47.946;20.540;2022-09-27T12:31:27;1.02;;;0.93;;
67585;SDS011;55785;47.946;20.540;2022-09-27T12:33:59;7.25;;;1.35;;
67585;SDS011;55785;47.946;20.540;2022-09-27T12:36:49;2.45;;;1.25;;
67585;SDS011;55785;47.946;20.540;2022-09-27T12:40:02;0.82;;;0.75;;
67585;SDS011;55785;47.946;20.540;2022-09-27T12:42:19;2.20;;;1.52;;
67585;SDS011;55785;47.946;20.540;2022-09-27T12:44:48;3.70;;;1.83;;
67585;SDS011;55785;47.946;20.540;2022-09-27T12:52:24;1.13;;;1.05;;
67585;SDS011;55785;47.946;20.540;2022-09-27T13:00:22;1.67;;;1.58;;
67585;SDS011;55785;47.946;20.540;2022-09-27T13:13:38;2.45;;;1.27;;
67585;SDS011;55785;47.946;20.540;2022-09-27T13:16:04;1.75;;;1.38;;
67585;SDS011;55785;47.946;20.540;2022-09-27T13:20:59;2.20;;;1.90;;
67585;SDS011;55785;47.946;20.540;2022-09-27T13:25:55;1.77;;;1.30;;
67585;SDS011;55785;47.946;20.540;2022-09-27T13:30:55;1.67;;;1.58;;
67585;SDS011;55785;47.946;20.540;2022-09-27T13:36:17;1.20;;;1.10;;
67585;SDS011;55785;47.946;20.540;2022-09-27T13:38:52;1.95;;;1.63;;
67585;SDS011;55785;47.946;20.540;2022-09-27T13:41:21;3.00;;;1.60;;
67585;SDS011;55785;47.946;20.540;2022-09-27T13:46:33;2.35;;;1.55;;
67585;SDS011;55785;47.946;20.540;2022-09-27T13:49:17;1.40;;;1.20;;
67585;SDS011;55785;47.946;20.540;2022-09-27T13:51:49;2.50;;;1.42;;
67585;SDS011;55785;47.946;20.540;2022-09-27T13:57:04;2.15;;;1.65;;
67585;SDS011;55785;47.946;20.540;2022-09-27T13:59:51;1.05;;;0.95;;
67585;SDS011;55785;47.946;20.540;2022-09-27T14:02:31;1.40;;;1.30;;
67585;SDS011;55785;47.946;20.540;2022-09-27T14:05:03;2.83;;;1.95;;
67585;SDS011;55785;47.946;20.540;2022-09-27T14:07:35;2.97;;;2.10;;
67585;SDS011;55785;47.946;20.540;2022-09-27T14:10:03;1.85;;;1.33;;
67585;SDS011;55785;47.946;20.540;2022-09-27T14:12:31;2.20;;;1.75;;
67585;SDS011;55785;47.946;20.540;2022-09-27T14:14:59;1.67;;;1.48;;
67585;SDS011;55785;47.946;20.540;2022-09-27T14:17:26;2.08;;;1.85;;
67585;SDS011;55785;47.946;20.540;2022-09-27T14:19:51;1.42;;;1.20;;
67585;SDS011;55785;47.946;20.540;2022-09-27T14:22:18;2.15;;;1.52;;
67585;SDS011;55785;47.946;20.540;2022-09-27T14:24:46;1.77;;;1.55;;
67585;SDS011;55785;47.946;20.540;2022-09-27T14:29:44;2.38;;;1.25;;
67585;SDS011;55785;47.946;20.540;2022-09-27T14:32:11;2.13;;;1.42;;
67585;SDS011;55785;47.946;20.540;2022-09-27T14:34:38;1.27;;;1.17;;
67585;SDS011;55785;47.946;20.540;2022-09-27T14:37:03;2.17;;;1.55;;
67585;SDS011;55785;47.946;20.540;2022-09-27T14:39:30;1.77;;;1.38;;
67585;SDS011;55785;47.946;20.540;2022-09-27T14:42:00;2.03;;;1.55;;
67585;SDS011;55785;47.946;20.540;2022-09-27T14:44:29;1.00;;;0.88;;
67585;SDS011;55785;47.946;20.540;2022-09-27T14:47:16;1.05;;;1.02;;
67585;SDS011;55785;47.946;20.540;2022-09-27T14:49:52;1.80;;;1.50;;
67585;SDS011;55785;47.946;20.540;2022-09-27T14:52:21;1.75;;;1.52;;
67585;SDS011;55785;47.946;20.540;2022-09-27T14:54:55;1.42;;;1.30;;
67585;SDS011;55785;47.946;20.540;2022-09-27T14:57:25;6.53;;;1.65;;
67585;SDS011;55785;47.946;20.540;2022-09-27T14:59:52;1.40;;;1.30;;
67585;SDS011;55785;47.946;20.540;2022-09-27T15:02:18;1.92;;;1.70;;
67585;SDS011;55785;47.946;20.540;2022-09-27T15:04:45;1.75;;;1.55;;
67585;SDS011;55785;47.946;20.540;2022-09-27T15:07:12;1.38;;;1.25;;
67585;SDS011;55785;47.946;20.540;2022-09-27T15:09:38;1.73;;;1.13;;
67585;SDS011;55785;47.946;20.540;2022-09-27T15:12:04;2.70;;;1.50;;
67585;SDS011;55785;47.946;20.540;2022-09-27T15:14:29;3.25;;;1.50;;
67585;SDS011;55785;47.946;20.540;2022-09-27T15:16:55;1.50;;;1.38;;
67585;SDS011;55785;47.946;20.540;2022-09-27T15:19:25;2.75;;;2.28;;
67585;SDS011;55785;47.946;20.540;2022-09-27T15:21:52;1.98;;;1.42;;
67585;SDS011;55785;47.946;20.540;2022-09-27T15:27:04;2.17;;;1.45;;
67585;SDS011;55785;47.946;20.540;2022-09-27T15:29:40;1.42;;;1.27;;
67585;SDS011;55785;47.946;20.540;2022-09-27T15:32:06;1.58;;;1.45;;
67585;SDS011;55785;47.946;20.540;2022-09-27T15:34:38;2.80;;;1.65;;
67585;SDS011;55785;47.946;20.540;2022-09-27T15:37:03;1.98;;;1.42;;
67585;SDS011;55785;47.946;20.540;2022-09-27T15:39:34;2.55;;;1.83;;
67585;SDS011;55785;47.946;20.540;2022-09-27T15:44:50;2.75;;;2.10;;
67585;SDS011;55785;47.946;20.540;2022-09-27T15:49:57;1.08;;;1.05;;
67585;SDS011;55785;47.946;20.540;2022-09-27T15:52:38;1.63;;;1.23;;
67585;SDS011;55785;47.946;20.540;2022-09-27T15:55:05;1.27;;;1.17;;
67585;SDS011;55785;47.946;20.540;2022-09-27T15:57:34;1.58;;;1.27;;
67585;SDS011;55785;47.946;20.540;2022-09-27T16:00:00;4.20;;;1.90;;
67585;SDS011;55785;47.946;20.540;2022-09-27T16:02:26;1.05;;;1.02;;
67585;SDS011;55785;47.946;20.540;2022-09-27T16:04:51;2.00;;;1.83;;
67585;SDS011;55785;47.946;20.540;2022-09-27T16:07:16;1.70;;;1.42;;
67585;SDS011;55785;47.946;20.540;2022-09-27T16:09:42;1.60;;;1.50;;
67585;SDS011;55785;47.946;20.540;2022-09-27T16:12:07;1.13;;;1.00;;
67585;SDS011;55785;47.946;20.540;2022-09-27T16:14:32;1.60;;;1.50;;
67585;SDS011;55785;47.946;20.540;2022-09-27T16:16:58;2.75;;;1.65;;
67585;SDS011;55785;47.946;20.540;2022-09-27T16:19:23;2.85;;;1.75;;
67585;SDS011;55785;47.946;20.540;2022-09-27T16:21:48;1.23;;;1.10;;
67585;SDS011;55785;47.946;20.540;2022-09-27T16:24:14;1.65;;;1.25;;
67585;SDS011;55785;47.946;20.540;2022-09-27T16:26:40;2.47;;;2.10;;
67585;SDS011;55785;47.946;20.540;2022-09-27T16:29:12;2.03;;;1.48;;
67585;SDS011;55785;47.946;20.540;2022-09-27T16:31:39;2.53;;;2.33;;
67585;SDS011;55785;47.946;20.540;2022-09-27T16:34:06;3.00;;;2.58;;
67585;SDS011;55785;47.946;20.540;2022-09-27T16:36:33;4.03;;;2.88;;
67585;SDS011;55785;47.946;20.540;2022-09-27T16:38:58;4.85;;;3.38;;
67585;SDS011;55785;47.946;20.540;2022-09-27T16:41:23;4.18;;;3.25;;
67585;SDS011;55785;47.946;20.540;2022-09-27T16:43:49;9.18;;;4.72;;
67585;SDS011;55785;47.946;20.540;2022-09-27T16:46:14;4.70;;;3.35;;
67585;SDS011;55785;47.946;20.540;2022-09-27T16:48:40;3.88;;;2.67;;
67585;SDS011;55785;47.946;20.540;2022-09-27T16:51:08;6.95;;;4.40;;
67585;SDS011;55785;47.946;20.540;2022-09-27T16:53:36;2.95;;;2.30;;
67585;SDS011;55785;47.946;20.540;2022-09-27T16:56:01;3.10;;;2.33;;
67585;SDS011;55785;47.946;20.540;2022-09-27T16:58:27;1.42;;;1.33;;
67585;SDS011;55785;47.946;20.540;2022-09-27T17:00:56;1.70;;;1.50;;
67585;SDS011;55785;47.946;20.540;2022-09-27T17:03:22;3.50;;;2.30;;
67585;SDS011;55785;47.946;20.540;2022-09-27T17:05:47;0.95;;;0.90;;
67585;SDS011;55785;47.946;20.540;2022-09-27T17:08:12;1.95;;;1.75;;
67585;SDS011;55785;47.946;20.540;2022-09-27T17:10:37;1.27;;;1.02;;
67585;SDS011;55785;47.946;20.540;2022-09-27T17:13:08;1.27;;;1.17;;
67585;SDS011;55785;47.946;20.540;2022-09-27T17:15:35;1.73;;;1.58;;
67585;SDS011;55785;47.946;20.540;2022-09-27T17:18:01;0.90;;;0.90;;
67585;SDS011;55785;47.946;20.540;2022-09-27T17:20:26;1.08;;;0.98;;
67585;SDS011;55785;47.946;20.540;2022-09-27T17:22:51;1.23;;;1.13;;
67585;SDS011;55785;47.946;20.540;2022-09-27T17:25:16;1.08;;;0.95;;
67585;SDS011;55785;47.946;20.540;2022-09-27T17:27:42;1.23;;;0.98;;
67585;SDS011;55785;47.946;20.540;2022-09-27T17:30:07;2.17;;;1.80;;
67585;SDS011;55785;47.946;20.540;2022-09-27T17:32:33;2.35;;;1.92;;
67585;SDS011;55785;47.946;20.540;2022-09-27T17:34:58;2.97;;;2.55;;
67585;SDS011;55785;47.946;20.540;2022-09-27T17:37:23;4.30;;;3.25;;
67585;SDS011;55785;47.946;20.540;2022-09-27T17:39:49;4.22;;;2.55;;
67585;SDS011;55785;47.946;20.540;2022-09-27T17:42:14;2.40;;;2.20;;